sensor_id;sensor_type;location;lat;lon;timestamp;pressure;altitude;pressure_sealevel;temperature;humidity
64889;BME280;51386;53.082;8.816;2023-02-03T00:02:24;101814.31;;;13.92;60.55
64889;BME280;51386;53.082;8.816;2023-02-03T00:04:51;101816.00;;;13.93;60.67
64889;BME280;51386;53.082;8.816;2023-02-03T00:07:18;101816.66;;;13.95;60.52
64889;BME280;51386;53.082;8.816;2023-02-03T00:09:45;101813.63;;;13.98;60.39
64889;BME280;51386;53.082;8.816;2023-02-03T00:12:13;101822.59;;;13.97;60.40
64889;BME280;51386;53.082;8.816;2023-02-03T00:14:40;101816.13;;;13.99;60.23
64889;BME280;51386;53.082;8.816;2023-02-03T00:17:07;101828.19;;;14.02;60.04
64889;BME280;51386;53.082;8.816;2023-02-03T00:19:35;101806.84;;;14.03;60.04
64889;BME280;51386;53.082;8.816;2023-02-03T00:22:02;101816.28;;;14.06;59.81
64889;BME280;51386;53.082;8.816;2023-02-03T00:24:29;101816.28;;;14.06;59.85
64889;BME280;51386;53.082;8.816;2023-02-03T00:26:56;101822.22;;;14.08;60.12
64889;BME280;51386;53.082;8.816;2023-02-03T00:29:23;101828.16;;;14.10;60.07
64889;BME280;51386;53.082;8.816;2023-02-03T00:31:52;101829.00;;;14.10;59.80
64889;BME280;51386;53.082;8.816;2023-02-03T00:34:20;101822.53;;;14.13;59.77
64889;BME280;51386;53.082;8.816;2023-02-03T00:36:48;101834.78;;;14.14;59.54
64889;BME280;51386;53.082;8.816;2023-02-03T00:39:15;101829.81;;;14.11;59.46
64889;BME280;51386;53.082;8.816;2023-02-03T00:41:42;101826.19;;;14.12;59.63
64889;BME280;51386;53.082;8.816;2023-02-03T00:44:09;101827.81;;;14.13;59.46
64889;BME280;51386;53.082;8.816;2023-02-03T00:46:36;101819.22;;;14.11;59.40
64889;BME280;51386;53.082;8.816;2023-02-03T00:49:04;101837.13;;;14.09;59.48
64889;BME280;51386;53.082;8.816;2023-02-03T00:51:32;101819.91;;;14.05;59.38
64889;BME280;51386;53.082;8.816;2023-02-03T00:54:00;101814.97;;;14.02;59.33
64889;BME280;51386;53.082;8.816;2023-02-03T00:56:27;101808.84;;;14.01;59.38
64889;BME280;51386;53.082;8.816;2023-02-03T00:58:54;101802.72;;;14.01;59.41
64889;BME280;51386;53.082;8.816;2023-02-03T01:01:21;101785.19;;;14.00;59.32
64889;BME280;51386;53.082;8.816;2023-02-03T01:03:48;101793.94;;;14.00;59.50
64889;BME280;51386;53.082;8.816;2023-02-03T01:06:18;101793.94;;;14.00;59.28
64889;BME280;51386;53.082;8.816;2023-02-03T01:08:47;101797.41;;;14.01;59.10
64889;BME280;51386;53.082;8.816;2023-02-03T01:11:19;101789.47;;;14.01;59.03
64889;BME280;51386;53.082;8.816;2023-02-03T01:13:47;101801.41;;;13.97;58.91
64889;BME280;51386;53.082;8.816;2023-02-03T01:16:18;101793.47;;;13.97;58.96
64889;BME280;51386;53.082;8.816;2023-02-03T01:18:47;101789.16;;;13.96;59.00
64889;BME280;51386;53.082;8.816;2023-02-03T01:21:18;101781.22;;;13.96;58.65
64889;BME280;51386;53.082;8.816;2023-02-03T01:23:46;101794.81;;;13.93;58.96
64889;BME280;51386;53.082;8.816;2023-02-03T01:26:18;101784.22;;;13.93;58.68
64889;BME280;51386;53.082;8.816;2023-02-03T01:28:50;101759.72;;;13.91;58.76
64889;BME280;51386;53.082;8.816;2023-02-03T01:31:21;101751.47;;;13.94;58.85
64889;BME280;51386;53.082;8.816;2023-02-03T01:33:50;101767.16;;;13.95;58.61
64889;BME280;51386;53.082;8.816;2023-02-03T01:36:18;101745.81;;;13.97;58.74
64889;BME280;51386;53.082;8.816;2023-02-03T01:38:45;101756.56;;;13.95;58.60
64889;BME280;51386;53.082;8.816;2023-02-03T01:41:16;101744.81;;;13.98;58.43
64889;BME280;51386;53.082;8.816;2023-02-03T01:43:48;101727.75;;;14.00;58.53
64889;BME280;51386;53.082;8.816;2023-02-03T01:46:30;101723.16;;;14.02;58.36
64889;BME280;51386;53.082;8.816;2023-02-03T01:49:05;101716.84;;;14.03;58.14
64889;BME280;51386;53.082;8.816;2023-02-03T01:51:35;101723.31;;;14.01;58.18
64889;BME280;51386;53.082;8.816;2023-02-03T01:54:05;101718.00;;;14.01;58.31
64889;BME280;51386;53.082;8.816;2023-02-03T01:56:38;101716.38;;;14.00;58.19
64889;BME280;51386;53.082;8.816;2023-02-03T01:59:06;101717.66;;;14.04;57.97
64889;BME280;51386;53.082;8.816;2023-02-03T02:01:34;101709.41;;;13.99;58.21
64889;BME280;51386;53.082;8.816;2023-02-03T02:04:03;101707.41;;;14.01;58.22
64889;BME280;51386;53.082;8.816;2023-02-03T02:06:30;101715.34;;;14.01;58.22
64889;BME280;51386;53.082;8.816;2023-02-03T02:08:58;101727.59;;;14.02;58.02
64889;BME280;51386;53.082;8.816;2023-02-03T02:11:28;101711.06;;;14.00;58.17
64889;BME280;51386;53.082;8.816;2023-02-03T02:13:59;101705.28;;;13.96;58.08
64889;BME280;51386;53.082;8.816;2023-02-03T02:16:40;101720.34;;;13.96;58.22
64889;BME280;51386;53.082;8.816;2023-02-03T02:19:57;101709.94;;;13.94;58.07
64889;BME280;51386;53.082;8.816;2023-02-03T02:22:46;101714.72;;;13.91;58.08
64889;BME280;51386;53.082;8.816;2023-02-03T02:26:19;101728.16;;;13.89;58.23
64889;BME280;51386;53.082;8.816;2023-02-03T02:29:22;101732.47;;;13.90;58.15
64889;BME280;51386;53.082;8.816;2023-02-03T02:32:11;101727.28;;;13.97;58.05
64889;BME280;51386;53.082;8.816;2023-02-03T02:34:52;101716.38;;;14.00;57.95
64889;BME280;51386;53.082;8.816;2023-02-03T02:37:31;101717.03;;;14.02;57.87
64889;BME280;51386;53.082;8.816;2023-02-03T02:40:14;101716.84;;;14.03;57.70
64889;BME280;51386;53.082;8.816;2023-02-03T02:42:59;101692.38;;;14.01;57.67
64889;BME280;51386;53.082;8.816;2023-02-03T02:45:36;101695.84;;;14.02;57.45
64889;BME280;51386;53.082;8.816;2023-02-03T02:48:15;101682.94;;;13.99;57.51
64889;BME280;51386;53.082;8.816;2023-02-03T02:50:46;101687.25;;;14.00;57.56
64889;BME280;51386;53.082;8.816;2023-02-03T02:53:20;101695.84;;;14.02;57.57
64889;BME280;51386;53.082;8.816;2023-02-03T02:55:49;101683.25;;;14.04;57.49
64889;BME280;51386;53.082;8.816;2023-02-03T02:58:19;101668.34;;;14.03;57.51
64889;BME280;51386;53.082;8.816;2023-02-03T03:00:47;101658.41;;;14.05;57.16
64889;BME280;51386;53.082;8.816;2023-02-03T03:03:18;101656.78;;;14.04;57.26
64889;BME280;51386;53.082;8.816;2023-02-03T03:05:51;101654.78;;;14.06;57.11
64889;BME280;51386;53.082;8.816;2023-02-03T03:08:25;101652.97;;;14.06;56.80
64889;BME280;51386;53.082;8.816;2023-02-03T03:10:57;101657.09;;;14.09;56.68
64889;BME280;51386;53.082;8.816;2023-02-03T03:13:31;101664.50;;;14.13;56.68
64889;BME280;51386;53.082;8.816;2023-02-03T03:16:04;101661.34;;;14.18;56.40
64889;BME280;51386;53.082;8.816;2023-02-03T03:18:39;101660.50;;;14.17;56.44
64889;BME280;51386;53.082;8.816;2023-02-03T03:21:15;101661.34;;;14.18;56.57
64889;BME280;51386;53.082;8.816;2023-02-03T03:23:48;101654.22;;;14.18;56.37
64889;BME280;51386;53.082;8.816;2023-02-03T03:26:25;101661.13;;;14.19;56.42
64889;BME280;51386;53.082;8.816;2023-02-03T03:29:04;101651.56;;;14.18;56.31
64889;BME280;51386;53.082;8.816;2023-02-03T03:31:32;101641.81;;;14.19;56.48
64889;BME280;51386;53.082;8.816;2023-02-03T03:34:01;101630.84;;;14.22;56.47
64889;BME280;51386;53.082;8.816;2023-02-03T03:36:34;101631.47;;;14.24;56.33
64889;BME280;51386;53.082;8.816;2023-02-03T03:39:13;101634.97;;;14.24;56.22
64889;BME280;51386;53.082;8.816;2023-02-03T03:41:55;101620.25;;;14.22;55.96
64889;BME280;51386;53.082;8.816;2023-02-03T03:44:29;101616.63;;;14.23;56.02
64889;BME280;51386;53.082;8.816;2023-02-03T03:47:15;101625.53;;;14.22;56.13
64889;BME280;51386;53.082;8.816;2023-02-03T03:49:47;101629.22;;;14.21;56.20
64889;BME280;51386;53.082;8.816;2023-02-03T03:52:20;101638.13;;;14.20;56.14
64889;BME280;51386;53.082;8.816;2023-02-03T03:54:50;101626.56;;;14.21;56.05
64889;BME280;51386;53.082;8.816;2023-02-03T03:57:22;101637.81;;;14.23;56.00
64889;BME280;51386;53.082;8.816;2023-02-03T03:59:52;101643.09;;;14.23;56.00
64889;BME280;51386;53.082;8.816;2023-02-03T04:02:21;101644.72;;;14.24;56.00
64889;BME280;51386;53.082;8.816;2023-02-03T04:04:52;101649.22;;;14.23;55.86
64889;BME280;51386;53.082;8.816;2023-02-03T04:07:19;101651.69;;;14.25;56.12
64889;BME280;51386;53.082;8.816;2023-02-03T04:09:46;101641.91;;;14.25;56.09
64889;BME280;51386;53.082;8.816;2023-02-03T04:12:21;101650.03;;;14.24;56.05
64889;BME280;51386;53.082;8.816;2023-02-03T04:14:49;101651.19;;;14.21;56.15
64889;BME280;51386;53.082;8.816;2023-02-03T04:17:15;101652.84;;;14.22;56.15
64889;BME280;51386;53.082;8.816;2023-02-03T04:19:46;101650.03;;;14.24;56.20
64889;BME280;51386;53.082;8.816;2023-02-03T04:22:14;101638.63;;;14.23;56.78
64889;BME280;51386;53.082;8.816;2023-02-03T04:24:41;101645.56;;;14.24;56.45
64889;BME280;51386;53.082;8.816;2023-02-03T04:27:08;101627.84;;;14.25;56.24
64889;BME280;51386;53.082;8.816;2023-02-03T04:29:35;101625.19;;;14.25;56.32
64889;BME280;51386;53.082;8.816;2023-02-03T04:32:02;101619.06;;;14.24;56.22
64889;BME280;51386;53.082;8.816;2023-02-03T04:34:29;101628.84;;;14.24;56.43
64889;BME280;51386;53.082;8.816;2023-02-03T04:36:56;101624.91;;;14.20;56.76
64889;BME280;51386;53.082;8.816;2023-02-03T04:39:25;101615.19;;;14.12;56.87
64889;BME280;51386;53.082;8.816;2023-02-03T04:41:51;101623.66;;;14.08;57.01
64889;BME280;51386;53.082;8.816;2023-02-03T04:44:18;101610.41;;;14.08;57.10
64889;BME280;51386;53.082;8.816;2023-02-03T04:46:45;101584.97;;;14.07;57.39
64889;BME280;51386;53.082;8.816;2023-02-03T04:49:12;101588.31;;;14.01;57.53
64889;BME280;51386;53.082;8.816;2023-02-03T04:51:39;101575.25;;;13.99;57.52
64889;BME280;51386;53.082;8.816;2023-02-03T04:54:06;101575.41;;;13.98;57.79
64889;BME280;51386;53.082;8.816;2023-02-03T04:56:36;101572.94;;;13.96;57.73
64889;BME280;51386;53.082;8.816;2023-02-03T04:59:03;101576.13;;;13.92;57.70
64889;BME280;51386;53.082;8.816;2023-02-03T05:01:30;101569.53;;;13.88;57.91
64889;BME280;51386;53.082;8.816;2023-02-03T05:03:57;101574.84;;;13.88;57.73
64889;BME280;51386;53.082;8.816;2023-02-03T05:06:26;101572.50;;;13.93;57.63
64889;BME280;51386;53.082;8.816;2023-02-03T05:08:58;101570.84;;;13.92;57.47
64889;BME280;51386;53.082;8.816;2023-02-03T05:11:25;101570.50;;;13.95;57.30
64889;BME280;51386;53.082;8.816;2023-02-03T05:13:54;101587.66;;;13.99;57.09
64889;BME280;51386;53.082;8.816;2023-02-03T05:16:21;101581.84;;;14.03;56.77
64889;BME280;51386;53.082;8.816;2023-02-03T05:18:48;101587.66;;;13.99;56.82
64889;BME280;51386;53.082;8.816;2023-02-03T05:21:15;101592.41;;;14.03;56.82
64889;BME280;51386;53.082;8.816;2023-02-03T05:23:42;101584.13;;;14.06;56.79
64889;BME280;51386;53.082;8.816;2023-02-03T05:26:09;101587.09;;;14.11;56.66
64889;BME280;51386;53.082;8.816;2023-02-03T05:28:36;101590.19;;;14.15;56.66
64889;BME280;51386;53.082;8.816;2023-02-03T05:31:05;101593.47;;;14.17;56.58
64889;BME280;51386;53.082;8.816;2023-02-03T05:33:32;101590.81;;;14.17;56.71
64889;BME280;51386;53.082;8.816;2023-02-03T05:35:59;101583.56;;;14.19;56.37
64889;BME280;51386;53.082;8.816;2023-02-03T05:38:26;101579.69;;;14.21;56.56
64889;BME280;51386;53.082;8.816;2023-02-03T05:40:53;101574.25;;;14.23;56.56
64889;BME280;51386;53.082;8.816;2023-02-03T05:43:39;101572.59;;;14.22;56.69
64889;BME280;51386;53.082;8.816;2023-02-03T05:46:07;101567.47;;;14.20;56.75
64889;BME280;51386;53.082;8.816;2023-02-03T05:48:34;101572.28;;;14.17;56.97
64889;BME280;51386;53.082;8.816;2023-02-03T05:51:01;101578.59;;;14.16;57.04
64889;BME280;51386;53.082;8.816;2023-02-03T05:53:28;101573.66;;;14.13;57.17
64889;BME280;51386;53.082;8.816;2023-02-03T05:55:55;101566.72;;;14.12;57.32
64889;BME280;51386;53.082;8.816;2023-02-03T05:58:22;101573.66;;;14.13;57.31
64889;BME280;51386;53.082;8.816;2023-02-03T06:00:49;101565.06;;;14.11;57.61
64889;BME280;51386;53.082;8.816;2023-02-03T06:03:19;101567.22;;;14.07;57.48
64889;BME280;51386;53.082;8.816;2023-02-03T06:05:46;101561.78;;;14.09;57.54
64889;BME280;51386;53.082;8.816;2023-02-03T06:08:13;101564.25;;;14.10;57.74
64889;BME280;51386;53.082;8.816;2023-02-03T06:10:40;101548.34;;;14.10;57.88
64889;BME280;51386;53.082;8.816;2023-02-03T06:13:09;101550.19;;;14.10;58.15
64889;BME280;51386;53.082;8.816;2023-02-03T06:15:38;101563.13;;;14.05;58.57
64889;BME280;51386;53.082;8.816;2023-02-03T06:18:06;101556.88;;;13.98;58.85
64889;BME280;51386;53.082;8.816;2023-02-03T06:20:34;101551.31;;;13.93;58.88
64889;BME280;51386;53.082;8.816;2023-02-03T06:23:01;101551.66;;;13.90;59.32
64889;BME280;51386;53.082;8.816;2023-02-03T06:25:28;101546.53;;;13.88;59.49
64889;BME280;51386;53.082;8.816;2023-02-03T06:27:58;101539.13;;;13.84;59.68
64889;BME280;51386;53.082;8.816;2023-02-03T06:30:25;101522.94;;;13.79;60.25
64889;BME280;51386;53.082;8.816;2023-02-03T06:32:53;101534.34;;;13.79;60.37
64889;BME280;51386;53.082;8.816;2023-02-03T06:35:20;101528.22;;;13.79;60.06
64889;BME280;51386;53.082;8.816;2023-02-03T06:37:48;101533.91;;;13.76;60.44
64889;BME280;51386;53.082;8.816;2023-02-03T06:40:15;101511.06;;;13.75;60.37
64889;BME280;51386;53.082;8.816;2023-02-03T06:42:44;101519.19;;;13.73;60.51
64889;BME280;51386;53.082;8.816;2023-02-03T06:45:11;101526.31;;;13.73;60.50
64889;BME280;51386;53.082;8.816;2023-02-03T06:47:39;101524.94;;;13.77;60.35
64889;BME280;51386;53.082;8.816;2023-02-03T06:50:07;101529.06;;;13.79;60.47
64889;BME280;51386;53.082;8.816;2023-02-03T06:52:35;101512.00;;;13.82;60.31
64889;BME280;51386;53.082;8.816;2023-02-03T06:55:04;101514.66;;;13.82;59.98
64889;BME280;51386;53.082;8.816;2023-02-03T06:57:31;101516.63;;;13.88;59.86
64889;BME280;51386;53.082;8.816;2023-02-03T06:59:58;101496.72;;;13.92;59.62
64889;BME280;51386;53.082;8.816;2023-02-03T07:02:25;101497.66;;;13.99;59.62
64889;BME280;51386;53.082;8.816;2023-02-03T07:04:52;101493.66;;;14.03;59.14
64889;BME280;51386;53.082;8.816;2023-02-03T07:07:19;101487.19;;;14.05;58.79
64889;BME280;51386;53.082;8.816;2023-02-03T07:09:46;101477.06;;;14.09;58.55
64889;BME280;51386;53.082;8.816;2023-02-03T07:12:14;101490.59;;;14.14;58.55
64889;BME280;51386;53.082;8.816;2023-02-03T07:14:41;101480.09;;;14.20;58.62
64889;BME280;51386;53.082;8.816;2023-02-03T07:17:08;101490.78;;;14.27;58.34
64889;BME280;51386;53.082;8.816;2023-02-03T07:19:35;101494.75;;;14.31;58.10
64889;BME280;51386;53.082;8.816;2023-02-03T07:22:02;101483.66;;;14.36;57.85
64889;BME280;51386;53.082;8.816;2023-02-03T07:24:29;101472.66;;;14.39;57.97
64889;BME280;51386;53.082;8.816;2023-02-03T07:26:56;101472.13;;;14.43;57.65
64889;BME280;51386;53.082;8.816;2023-02-03T07:29:24;101478.09;;;14.45;57.14
64889;BME280;51386;53.082;8.816;2023-02-03T07:31:51;101473.22;;;14.49;57.37
64889;BME280;51386;53.082;8.816;2023-02-03T07:34:19;101484.81;;;14.48;57.02
64889;BME280;51386;53.082;8.816;2023-02-03T07:36:46;101475.53;;;14.52;57.19
64889;BME280;51386;53.082;8.816;2023-02-03T07:39:13;101487.19;;;14.57;57.11
64889;BME280;51386;53.082;8.816;2023-02-03T07:41:39;101485.03;;;14.61;57.04
64889;BME280;51386;53.082;8.816;2023-02-03T07:44:07;101498.72;;;14.64;56.81
64889;BME280;51386;53.082;8.816;2023-02-03T07:46:36;101501.84;;;14.68;56.76
64889;BME280;51386;53.082;8.816;2023-02-03T07:49:09;101487.41;;;14.70;56.85
64889;BME280;51386;53.082;8.816;2023-02-03T07:51:36;101489.03;;;14.71;56.56
64889;BME280;51386;53.082;8.816;2023-02-03T07:54:03;101476.06;;;14.76;56.37
64889;BME280;51386;53.082;8.816;2023-02-03T07:56:30;101481.00;;;14.79;56.66
64889;BME280;51386;53.082;8.816;2023-02-03T07:58:59;101485.31;;;14.80;56.58
64889;BME280;51386;53.082;8.816;2023-02-03T08:01:31;101493.88;;;14.82;56.72
64889;BME280;51386;53.082;8.816;2023-02-03T08:04:01;101499.47;;;14.87;56.44
64889;BME280;51386;53.082;8.816;2023-02-03T08:06:31;101498.44;;;14.88;56.35
64889;BME280;51386;53.082;8.816;2023-02-03T08:08:58;101505.59;;;14.88;56.20
64889;BME280;51386;53.082;8.816;2023-02-03T08:11:25;101497.44;;;14.89;56.00
64889;BME280;51386;53.082;8.816;2023-02-03T08:13:52;101499.75;;;14.93;56.16
64889;BME280;51386;53.082;8.816;2023-02-03T08:16:19;101493.06;;;14.97;56.47
64889;BME280;51386;53.082;8.816;2023-02-03T08:18:46;101493.13;;;15.03;56.12
64889;BME280;51386;53.082;8.816;2023-02-03T08:21:14;101493.59;;;15.07;55.69
64889;BME280;51386;53.082;8.816;2023-02-03T08:23:41;101487.09;;;15.09;56.07
64889;BME280;51386;53.082;8.816;2023-02-03T08:26:08;101503.81;;;15.10;55.74
64889;BME280;51386;53.082;8.816;2023-02-03T08:28:35;101503.03;;;15.09;55.80
64889;BME280;51386;53.082;8.816;2023-02-03T08:31:09;101514.41;;;15.10;55.90
64889;BME280;51386;53.082;8.816;2023-02-03T08:33:36;101505.09;;;15.14;55.81
64889;BME280;51386;53.082;8.816;2023-02-03T08:36:04;101507.94;;;15.12;55.77
64889;BME280;51386;53.082;8.816;2023-02-03T08:38:33;101515.72;;;15.14;55.74
64889;BME280;51386;53.082;8.816;2023-02-03T08:41:00;101513.69;;;15.16;55.85
64889;BME280;51386;53.082;8.816;2023-02-03T08:43:27;101510.03;;;15.17;56.09
64889;BME280;51386;53.082;8.816;2023-02-03T08:45:54;101520.28;;;15.20;56.03
64889;BME280;51386;53.082;8.816;2023-02-03T08:48:21;101528.06;;;15.21;56.02
64889;BME280;51386;53.082;8.816;2023-02-03T08:50:47;101529.69;;;15.22;55.55
64889;BME280;51386;53.082;8.816;2023-02-03T08:53:18;101537.44;;;15.24;55.76
64889;BME280;51386;53.082;8.816;2023-02-03T08:55:46;101536.44;;;15.25;55.40
64889;BME280;51386;53.082;8.816;2023-02-03T08:58:13;101555.00;;;15.25;55.70
64889;BME280;51386;53.082;8.816;2023-02-03T09:00:41;101537.44;;;15.24;55.44
64889;BME280;51386;53.082;8.816;2023-02-03T09:03:08;101555.00;;;15.25;55.67
64889;BME280;51386;53.082;8.816;2023-02-03T09:05:35;101552.38;;;15.25;55.42
64889;BME280;51386;53.082;8.816;2023-02-03T09:08:03;101580.53;;;15.26;55.73
64889;BME280;51386;53.082;8.816;2023-02-03T09:10:30;101625.72;;;15.18;54.82
64889;BME280;51386;53.082;8.816;2023-02-03T09:12:58;101589.97;;;14.99;54.21
64889;BME280;51386;53.082;8.816;2023-02-03T09:15:25;101598.88;;;14.83;54.14
64889;BME280;51386;53.082;8.816;2023-02-03T09:17:53;101614.94;;;14.67;52.93
64889;BME280;51386;53.082;8.816;2023-02-03T09:20:21;101599.50;;;14.56;52.88
64889;BME280;51386;53.082;8.816;2023-02-03T09:22:49;101609.16;;;14.49;52.45
64889;BME280;51386;53.082;8.816;2023-02-03T09:25:16;101603.56;;;14.44;51.69
64889;BME280;51386;53.082;8.816;2023-02-03T09:27:43;101610.88;;;14.42;51.06
64889;BME280;51386;53.082;8.816;2023-02-03T09:30:13;101615.34;;;14.42;50.72
64889;BME280;51386;53.082;8.816;2023-02-03T09:32:40;101619.66;;;14.43;50.88
64889;BME280;51386;53.082;8.816;2023-02-03T09:35:07;101611.50;;;14.44;50.47
64889;BME280;51386;53.082;8.816;2023-02-03T09:37:34;101622.75;;;14.46;50.41
64889;BME280;51386;53.082;8.816;2023-02-03T09:40:02;101624.41;;;14.47;50.11
64889;BME280;51386;53.082;8.816;2023-02-03T09:45:44;101612.91;;;14.55;50.21
64889;BME280;51386;53.082;8.816;2023-02-03T09:48:16;101617.31;;;14.62;49.46
64889;BME280;51386;53.082;8.816;2023-02-03T09:50:47;101616.22;;;14.71;49.32
64889;BME280;51386;53.082;8.816;2023-02-03T09:53:27;101631.19;;;14.87;49.50
64889;BME280;51386;53.082;8.816;2023-02-03T09:55:56;101630.09;;;15.11;49.36
64889;BME280;51386;53.082;8.816;2023-02-03T09:58:28;101636.50;;;15.31;49.02
64889;BME280;51386;53.082;8.816;2023-02-03T10:01:01;101646.03;;;15.40;48.52
64889;BME280;51386;53.082;8.816;2023-02-03T10:03:37;101650.81;;;15.44;48.20
64889;BME280;51386;53.082;8.816;2023-02-03T10:06:22;101655.03;;;15.53;47.98
64889;BME280;51386;53.082;8.816;2023-02-03T10:09:10;101660.47;;;15.67;48.38
64889;BME280;51386;53.082;8.816;2023-02-03T10:12:08;101655.78;;;15.83;48.07
64889;BME280;51386;53.082;8.816;2023-02-03T10:15:02;101662.16;;;16.03;48.12
64889;BME280;51386;53.082;8.816;2023-02-03T10:17:37;101669.78;;;16.27;47.63
64889;BME280;51386;53.082;8.816;2023-02-03T10:20:15;101677.31;;;16.45;47.65
64889;BME280;51386;53.082;8.816;2023-02-03T10:22:50;101686.97;;;16.67;47.10
64889;BME280;51386;53.082;8.816;2023-02-03T10:25:24;101672.56;;;16.83;47.01
64889;BME280;51386;53.082;8.816;2023-02-03T10:28:02;101689.19;;;16.85;46.67
64889;BME280;51386;53.082;8.816;2023-02-03T10:30:35;101686.13;;;16.88;46.77
64889;BME280;51386;53.082;8.816;2023-02-03T10:33:15;101686.38;;;16.93;46.93
64889;BME280;51386;53.082;8.816;2023-02-03T10:35:49;101689.28;;;16.98;46.86
64889;BME280;51386;53.082;8.816;2023-02-03T10:38:31;101686.22;;;17.01;46.47
64889;BME280;51386;53.082;8.816;2023-02-03T10:41:02;101682.78;;;17.07;45.76
64889;BME280;51386;53.082;8.816;2023-02-03T10:43:31;101685.78;;;17.25;45.90
64889;BME280;51386;53.082;8.816;2023-02-03T10:46:14;101684.97;;;17.52;45.28
64889;BME280;51386;53.082;8.816;2023-02-03T10:48:43;101691.44;;;17.78;44.69
64889;BME280;51386;53.082;8.816;2023-02-03T10:51:19;101700.53;;;17.90;44.31
64889;BME280;51386;53.082;8.816;2023-02-03T10:53:47;101700.56;;;18.03;43.57
64889;BME280;51386;53.082;8.816;2023-02-03T10:56:16;101711.66;;;18.13;43.51
64889;BME280;51386;53.082;8.816;2023-02-03T10:58:49;101720.06;;;18.10;42.45
64889;BME280;51386;53.082;8.816;2023-02-03T11:01:19;101715.31;;;17.99;42.25
64889;BME280;51386;53.082;8.816;2023-02-03T11:03:58;101721.41;;;17.93;42.35
64889;BME280;51386;53.082;8.816;2023-02-03T11:06:27;101708.28;;;17.85;41.55
64889;BME280;51386;53.082;8.816;2023-02-03T11:08:55;101709.88;;;17.79;41.58
64889;BME280;51386;53.082;8.816;2023-02-03T11:11:25;101709.88;;;17.73;41.64
64889;BME280;51386;53.082;8.816;2023-02-03T11:14:15;101699.34;;;17.65;41.96
64889;BME280;51386;53.082;8.816;2023-02-03T11:16:43;101739.53;;;17.70;42.48
64889;BME280;51386;53.082;8.816;2023-02-03T11:19:17;101714.13;;;17.67;41.78
64889;BME280;51386;53.082;8.816;2023-02-03T11:21:48;101722.22;;;17.52;41.69
64889;BME280;51386;53.082;8.816;2023-02-03T11:24:20;101729.03;;;17.34;41.63
64889;BME280;51386;53.082;8.816;2023-02-03T11:26:53;101731.22;;;17.24;42.51
64889;BME280;51386;53.082;8.816;2023-02-03T11:29:24;101733.75;;;17.32;42.32
64889;BME280;51386;53.082;8.816;2023-02-03T11:31:55;101727.63;;;17.38;41.60
64889;BME280;51386;53.082;8.816;2023-02-03T11:34:28;101726.59;;;17.32;40.89
64889;BME280;51386;53.082;8.816;2023-02-03T11:36:56;101724.69;;;17.26;41.18
64889;BME280;51386;53.082;8.816;2023-02-03T11:39:27;101741.81;;;17.17;41.34
64889;BME280;51386;53.082;8.816;2023-02-03T11:41:55;101749.75;;;17.11;41.90
64889;BME280;51386;53.082;8.816;2023-02-03T11:44:25;101749.44;;;16.99;41.53
64889;BME280;51386;53.082;8.816;2023-02-03T11:47:01;101747.28;;;16.88;41.62
64889;BME280;51386;53.082;8.816;2023-02-03T11:49:58;101759.44;;;16.76;41.11
64889;BME280;51386;53.082;8.816;2023-02-03T11:53:01;101752.34;;;16.62;41.67
64889;BME280;51386;53.082;8.816;2023-02-03T11:55:49;101741.28;;;16.58;41.80
64889;BME280;51386;53.082;8.816;2023-02-03T11:58:50;101742.00;;;16.52;41.11
64889;BME280;51386;53.082;8.816;2023-02-03T12:02:02;101741.75;;;16.47;41.27
64889;BME280;51386;53.082;8.816;2023-02-03T12:05:02;101753.81;;;16.50;40.98
64889;BME280;51386;53.082;8.816;2023-02-03T12:07:53;101759.13;;;16.50;40.66
64889;BME280;51386;53.082;8.816;2023-02-03T12:10:38;101756.97;;;16.53;40.41
64889;BME280;51386;53.082;8.816;2023-02-03T12:13:28;101762.09;;;16.55;40.14
64889;BME280;51386;53.082;8.816;2023-02-03T12:16:19;101762.91;;;16.55;40.24
64889;BME280;51386;53.082;8.816;2023-02-03T12:19:02;101770.53;;;16.58;40.41
64889;BME280;51386;53.082;8.816;2023-02-03T12:21:43;101776.47;;;16.60;40.62
64889;BME280;51386;53.082;8.816;2023-02-03T12:24:25;101762.19;;;16.61;40.72
64889;BME280;51386;53.082;8.816;2023-02-03T12:27:10;101783.88;;;16.65;40.63
64889;BME280;51386;53.082;8.816;2023-02-03T12:29:49;101772.25;;;16.66;40.17
64889;BME280;51386;53.082;8.816;2023-02-03T12:32:28;101763.50;;;16.72;40.48
64889;BME280;51386;53.082;8.816;2023-02-03T12:35:09;101766.78;;;16.74;40.34
64889;BME280;51386;53.082;8.816;2023-02-03T12:37:45;101790.66;;;16.67;39.58
64889;BME280;51386;53.082;8.816;2023-02-03T12:40:21;101771.91;;;16.54;39.71
64889;BME280;51386;53.082;8.816;2023-02-03T12:42:56;101783.25;;;16.48;40.02
64889;BME280;51386;53.082;8.816;2023-02-03T12:45:28;101773.81;;;16.46;40.17
64889;BME280;51386;53.082;8.816;2023-02-03T12:48:02;101784.19;;;16.41;40.03
64889;BME280;51386;53.082;8.816;2023-02-03T12:50:38;101786.56;;;16.36;40.06
64889;BME280;51386;53.082;8.816;2023-02-03T12:53:17;101786.69;;;16.27;40.24
64889;BME280;51386;53.082;8.816;2023-02-03T12:55:51;101790.75;;;16.23;40.58
64889;BME280;51386;53.082;8.816;2023-02-03T12:58:25;101779.38;;;16.15;40.56
64889;BME280;51386;53.082;8.816;2023-02-03T13:01:00;101771.31;;;16.08;40.72
64889;BME280;51386;53.082;8.816;2023-02-03T13:03:39;101781.31;;;16.06;40.69
64889;BME280;51386;53.082;8.816;2023-02-03T13:06:14;101786.00;;;16.04;40.77
64889;BME280;51386;53.082;8.816;2023-02-03T13:08:53;101797.81;;;16.02;40.83
64889;BME280;51386;53.082;8.816;2023-02-03T13:11:28;101793.69;;;15.99;40.74
64889;BME280;51386;53.082;8.816;2023-02-03T13:14:07;101798.38;;;15.97;40.53
64889;BME280;51386;53.082;8.816;2023-02-03T13:16:44;101793.75;;;15.91;40.11
64889;BME280;51386;53.082;8.816;2023-02-03T13:19:23;101801.28;;;15.88;40.08